Time;durP1;ratioP1;P1;durP2;ratioP2;P2;SDS_P1;SDS_P2;PMS_P1;PMS_P2;Temp;Humidity;BMP_temperature;BMP_pressure;BME280_temperature;BME280_humidity;BME280_pressure;Samples;Min_cycle;Max_cycle;Signal;HPM_P1;HPM_P2
2023/06/24 00:01:18;;;;;;;3.28;2.10;;;;;;;;;;5036692;28;25062;-74
2023/06/24 00:03:46;;;;;;;2.53;2.03;;;;;;;;;;5058027;28;25062;-73
2023/06/24 00:06:18;;;;;;;3.28;2.45;;;;;;;;;;5051743;28;25060;-74
2023/06/24 00:08:47;;;;;;;1.90;1.80;;;;;;;;;;5044655;28;25114;-75
2023/06/24 00:11:13;;;;;;;5.18;2.30;;;;;;;;;;5050159;28;25139;-73
2023/06/24 00:13:39;;;;;;;4.00;2.17;;;;;;;;;;5047176;28;25060;-74
2023/06/24 00:16:08;;;;;;;5.40;2.40;;;;;;;;;;5037196;28;25088;-74
2023/06/24 00:18:35;;;;;;;5.38;2.40;;;;;;;;;;5034101;28;25050;-72
2023/06/24 00:21:01;;;;;;;2.80;2.10;;;;;;;;;;5049005;28;25076;-74
2023/06/24 00:23:27;;;;;;;5.03;2.30;;;;;;;;;;5048698;28;25094;-73
2023/06/24 00:25:54;;;;;;;3.03;2.53;;;;;;;;;;5026741;28;25091;-74
2023/06/24 00:28:20;;;;;;;3.47;2.20;;;;;;;;;;5040764;28;25058;-73
2023/06/24 00:30:46;;;;;;;4.97;2.40;;;;;;;;;;5057777;28;25076;-74
2023/06/24 00:33:13;;;;;;;3.28;2.17;;;;;;;;;;5047033;28;25066;-74
2023/06/24 00:35:39;;;;;;;3.60;2.60;;;;;;;;;;5031311;28;25099;-76
2023/06/24 00:38:05;;;;;;;5.03;2.47;;;;;;;;;;5040986;28;25077;-75
2023/06/24 00:40:32;;;;;;;4.55;2.70;;;;;;;;;;5040825;28;25071;-73
2023/06/24 00:42:58;;;;;;;3.63;2.28;;;;;;;;;;5045876;28;25073;-72
2023/06/24 00:45:24;;;;;;;3.05;2.60;;;;;;;;;;5043400;28;25067;-75
2023/06/24 00:47:54;;;;;;;5.25;2.63;;;;;;;;;;5045735;28;25053;-74
2023/06/24 00:50:20;;;;;;;4.05;2.63;;;;;;;;;;5038859;28;25148;-74
2023/06/24 00:52:47;;;;;;;3.58;2.88;;;;;;;;;;5042338;28;25101;-73
2023/06/24 00:55:14;;;;;;;3.55;2.40;;;;;;;;;;5048013;28;25068;-73
2023/06/24 00:57:41;;;;;;;3.75;2.60;;;;;;;;;;5049267;28;25052;-72
2023/06/24 01:00:16;;;;;;;3.50;2.58;;;;;;;;;;5048053;28;25065;-74
2023/06/24 01:02:58;;;;;;;3.08;2.47;;;;;;;;;;5046174;28;25071;-72
2023/06/24 01:05:24;;;;;;;2.78;2.47;;;;;;;;;;5041612;28;25158;-73
2023/06/24 01:07:54;;;;;;;3.67;2.35;;;;;;;;;;5047003;28;25112;-72
2023/06/24 01:10:21;;;;;;;4.35;2.90;;;;;;;;;;5027315;28;25059;-74
2023/06/24 01:12:47;;;;;;;5.82;3.28;;;;;;;;;;5050153;28;25055;-73
2023/06/24 01:15:13;;;;;;;3.40;2.67;;;;;;;;;;5037865;28;25087;-72
2023/06/24 01:17:46;;;;;;;6.60;3.03;;;;;;;;;;5044919;28;25106;-74
2023/06/24 01:20:48;;;;;;;3.08;2.63;;;;;;;;;;5043125;28;25077;-74
2023/06/24 01:23:21;;;;;;;3.17;2.20;;;;;;;;;;4983307;28;25075;-73
2023/06/24 01:26:04;;;;;;;3.42;2.42;;;;;;;;;;5046626;28;25062;-74
2023/06/24 01:28:34;;;;;;;5.45;2.72;;;;;;;;;;5041869;28;25082;-74
2023/06/24 01:31:00;;;;;;;3.65;2.95;;;;;;;;;;5044829;28;25088;-73
2023/06/24 01:33:56;;;;;;;7.78;2.97;;;;;;;;;;5042263;28;25058;-74
2023/06/24 01:36:23;;;;;;;5.72;3.13;;;;;;;;;;5039718;28;25078;-72
2023/06/24 01:38:52;;;;;;;3.83;2.95;;;;;;;;;;5052795;28;25078;-73
2023/06/24 01:41:21;;;;;;;3.72;3.00;;;;;;;;;;5046576;28;25075;-74
2023/06/24 01:43:48;;;;;;;4.25;3.40;;;;;;;;;;5047194;28;25070;-72
2023/06/24 01:46:16;;;;;;;3.85;2.90;;;;;;;;;;5042118;28;25062;-73
2023/06/24 01:48:43;;;;;;;4.03;3.13;;;;;;;;;;5044750;28;25096;-73
2023/06/24 01:51:11;;;;;;;4.75;2.75;;;;;;;;;;5044302;28;25078;-73
2023/06/24 01:53:42;;;;;;;5.72;3.33;;;;;;;;;;5049051;28;25060;-74
2023/06/24 01:56:11;;;;;;;4.53;3.20;;;;;;;;;;5032010;28;25134;-73
2023/06/24 01:58:37;;;;;;;4.68;3.05;;;;;;;;;;5041714;28;25067;-73
2023/06/24 02:01:04;;;;;;;5.63;3.22;;;;;;;;;;5049837;28;25089;-73
2023/06/24 02:03:31;;;;;;;5.90;2.90;;;;;;;;;;5043214;28;25129;-73
2023/06/24 02:05:57;;;;;;;4.70;3.17;;;;;;;;;;5046731;28;25097;-73
2023/06/24 02:08:25;;;;;;;5.35;3.00;;;;;;;;;;5046731;28;25145;-73
2023/06/24 02:10:51;;;;;;;5.70;3.08;;;;;;;;;;5040198;28;25065;-72
2023/06/24 02:13:18;;;;;;;4.38;2.83;;;;;;;;;;5040645;28;25063;-74
2023/06/24 02:15:44;;;;;;;7.30;3.63;;;;;;;;;;5046221;28;25049;-73
2023/06/24 02:18:10;;;;;;;6.47;3.53;;;;;;;;;;5046239;28;25081;-73
2023/06/24 02:20:38;;;;;;;3.45;3.15;;;;;;;;;;5048508;28;25138;-73
2023/06/24 02:23:05;;;;;;;3.58;3.10;;;;;;;;;;5036276;28;25130;-72
2023/06/24 02:25:31;;;;;;;4.55;3.55;;;;;;;;;;5048374;28;25059;-73
2023/06/24 02:27:57;;;;;;;5.10;3.28;;;;;;;;;;5039457;28;25126;-72
2023/06/24 02:30:24;;;;;;;6.90;3.85;;;;;;;;;;5057300;28;25115;-73
2023/06/24 02:32:50;;;;;;;5.45;3.40;;;;;;;;;;5039734;28;25066;-74
2023/06/24 02:35:16;;;;;;;5.05;3.53;;;;;;;;;;5040391;28;25069;-73
2023/06/24 02:37:42;;;;;;;6.53;3.85;;;;;;;;;;5037741;28;25064;-71
2023/06/24 02:40:08;;;;;;;7.03;3.80;;;;;;;;;;5044850;28;25173;-73
2023/06/24 02:42:34;;;;;;;7.00;3.97;;;;;;;;;;5055444;28;25061;-73
2023/06/24 02:45:00;;;;;;;5.82;3.47;;;;;;;;;;5049645;28;25097;-73
2023/06/24 02:47:27;;;;;;;5.18;3.53;;;;;;;;;;5046986;28;25059;-73
2023/06/24 02:49:54;;;;;;;5.40;3.53;;;;;;;;;;5046381;28;25074;-73
2023/06/24 02:52:20;;;;;;;4.65;3.42;;;;;;;;;;5043356;28;25090;-73
2023/06/24 02:54:46;;;;;;;5.45;3.80;;;;;;;;;;5046721;28;25073;-73
2023/06/24 02:57:14;;;;;;;6.15;3.90;;;;;;;;;;5052265;28;25075;-73
2023/06/24 02:59:40;;;;;;;7.07;4.32;;;;;;;;;;5045168;28;25053;-73
2023/06/24 03:02:06;;;;;;;5.38;3.90;;;;;;;;;;5047864;28;25065;-72
2023/06/24 03:04:32;;;;;;;8.15;4.10;;;;;;;;;;5041767;28;25076;-73
2023/06/24 03:06:59;;;;;;;6.82;3.85;;;;;;;;;;5032523;28;25072;-71
2023/06/24 03:09:25;;;;;;;5.50;3.90;;;;;;;;;;5048957;28;25157;-73
2023/06/24 03:11:51;;;;;;;6.70;4.18;;;;;;;;;;5051093;28;25075;-73
2023/06/24 03:14:18;;;;;;;5.38;3.67;;;;;;;;;;5038562;28;25053;-75
2023/06/24 03:16:44;;;;;;;5.60;4.15;;;;;;;;;;5051162;28;25100;-72
2023/06/24 03:19:10;;;;;;;9.18;4.47;;;;;;;;;;5042913;28;25115;-73
2023/06/24 03:21:36;;;;;;;6.30;4.28;;;;;;;;;;5052019;28;25146;-72
2023/06/24 03:24:02;;;;;;;8.80;5.05;;;;;;;;;;5029109;28;25059;-73
2023/06/24 03:26:33;;;;;;;7.43;4.60;;;;;;;;;;5049367;28;25111;-73
2023/06/24 03:28:58;;;;;;;7.38;4.38;;;;;;;;;;5034373;28;25130;-73
2023/06/24 03:31:24;;;;;;;6.93;4.25;;;;;;;;;;5046303;28;25157;-73
2023/06/24 03:33:50;;;;;;;7.93;4.60;;;;;;;;;;5044735;28;25044;-72
2023/06/24 03:36:16;;;;;;;6.40;4.47;;;;;;;;;;5042588;28;25112;-72
2023/06/24 03:38:42;;;;;;;6.18;4.47;;;;;;;;;;5045971;28;25082;-73
2023/06/24 03:41:08;;;;;;;7.68;4.47;;;;;;;;;;5054631;28;25107;-72
2023/06/24 03:43:34;;;;;;;8.23;5.20;;;;;;;;;;5045014;28;25080;-71
2023/06/24 03:46:00;;;;;;;5.68;4.25;;;;;;;;;;5042009;28;25053;-73
2023/06/24 03:48:26;;;;;;;7.28;4.57;;;;;;;;;;5051762;28;25067;-73
2023/06/24 03:50:52;;;;;;;7.65;4.60;;;;;;;;;;5054216;28;25048;-73
2023/06/24 03:53:18;;;;;;;9.00;4.75;;;;;;;;;;5056527;28;25076;-71
2023/06/24 03:55:44;;;;;;;5.70;4.25;;;;;;;;;;5047446;28;25082;-72
2023/06/24 03:58:10;;;;;;;7.20;5.10;;;;;;;;;;5042379;28;25154;-73
2023/06/24 04:00:40;;;;;;;6.47;4.72;;;;;;;;;;5057961;28;25039;-72
2023/06/24 04:03:07;;;;;;;9.52;4.93;;;;;;;;;;5045220;28;25125;-72
2023/06/24 04:05:33;;;;;;;6.82;4.90;;;;;;;;;;5048026;28;25071;-73
2023/06/24 04:07:59;;;;;;;10.88;5.20;;;;;;;;;;5055138;28;25123;-72
2023/06/24 04:10:25;;;;;;;8.90;5.40;;;;;;;;;;5043955;28;25068;-71
2023/06/24 04:12:51;;;;;;;11.13;5.13;;;;;;;;;;5043807;28;25061;-74
2023/06/24 04:15:17;;;;;;;7.65;5.35;;;;;;;;;;5040193;28;25090;-73
2023/06/24 04:17:43;;;;;;;7.57;5.32;;;;;;;;;;5036800;28;25094;-72
2023/06/24 04:20:09;;;;;;;7.40;5.53;;;;;;;;;;5050973;28;25097;-73
2023/06/24 04:22:39;;;;;;;8.35;5.05;;;;;;;;;;5051113;28;25079;-73
2023/06/24 04:25:06;;;;;;;10.55;5.43;;;;;;;;;;5049286;28;25079;-72
2023/06/24 04:27:33;;;;;;;12.35;5.90;;;;;;;;;;5050509;28;25067;-72
2023/06/24 04:29:59;;;;;;;8.07;5.80;;;;;;;;;;5059434;28;25052;-72
2023/06/24 04:32:25;;;;;;;7.15;4.80;;;;;;;;;;5051504;28;25066;-71
2023/06/24 04:34:51;;;;;;;9.50;5.45;;;;;;;;;;5050759;28;25072;-71
2023/06/24 04:37:17;;;;;;;8.05;5.32;;;;;;;;;;5040226;28;25065;-72
2023/06/24 04:39:44;;;;;;;7.80;5.43;;;;;;;;;;5048103;28;25113;-73
2023/06/24 04:42:10;;;;;;;8.88;5.00;;;;;;;;;;5055005;28;25076;-72
2023/06/24 04:44:36;;;;;;;8.52;5.15;;;;;;;;;;5042077;28;25059;-73
2023/06/24 04:47:03;;;;;;;7.68;5.50;;;;;;;;;;5049103;28;25065;-72
2023/06/24 04:49:29;;;;;;;9.60;5.90;;;;;;;;;;5056172;28;25157;-72
2023/06/24 04:51:54;;;;;;;10.15;5.75;;;;;;;;;;5056408;28;25072;-72
2023/06/24 04:54:20;;;;;;;12.35;6.00;;;;;;;;;;5051471;28;25142;-73
2023/06/24 04:56:48;;;;;;;7.70;5.72;;;;;;;;;;5051677;28;25086;-73
2023/06/24 04:59:14;;;;;;;8.30;5.22;;;;;;;;;;5054089;28;25082;-72
2023/06/24 05:01:40;;;;;;;10.27;6.55;;;;;;;;;;5046263;28;25072;-71
2023/06/24 05:04:06;;;;;;;9.13;6.22;;;;;;;;;;5042867;28;25065;-73
2023/06/24 05:06:32;;;;;;;11.02;6.32;;;;;;;;;;5049888;28;25073;-72
2023/06/24 05:08:58;;;;;;;14.85;5.97;;;;;;;;;;5041196;28;25091;-74
2023/06/24 05:11:24;;;;;;;8.82;6.50;;;;;;;;;;5041198;28;25165;-72
2023/06/24 05:13:50;;;;;;;10.32;5.80;;;;;;;;;;5040946;28;25078;-73
2023/06/24 05:16:16;;;;;;;8.70;6.07;;;;;;;;;;5047564;28;25076;-73
2023/06/24 05:18:43;;;;;;;11.77;6.70;;;;;;;;;;5045706;28;25092;-72
2023/06/24 05:21:09;;;;;;;11.18;6.88;;;;;;;;;;5048206;28;25142;-72
2023/06/24 05:23:35;;;;;;;11.88;7.30;;;;;;;;;;5053558;28;25117;-71
2023/06/24 05:26:01;;;;;;;10.75;6.75;;;;;;;;;;5044837;28;25073;-70
2023/06/24 05:28:26;;;;;;;13.73;7.43;;;;;;;;;;5048428;28;25065;-73
2023/06/24 05:30:52;;;;;;;11.02;6.30;;;;;;;;;;5040074;28;25171;-72
2023/06/24 05:33:18;;;;;;;10.70;6.47;;;;;;;;;;5050457;28;25058;-75
2023/06/24 05:35:44;;;;;;;11.35;7.40;;;;;;;;;;5046737;28;25064;-71
2023/06/24 05:38:10;;;;;;;9.50;7.03;;;;;;;;;;5029600;28;25100;-73
2023/06/24 05:40:36;;;;;;;14.23;7.20;;;;;;;;;;5056055;28;25050;-72
2023/06/24 05:43:02;;;;;;;13.63;6.93;;;;;;;;;;5053608;28;25091;-74
2023/06/24 05:45:28;;;;;;;14.88;7.55;;;;;;;;;;5050016;28;25070;-73
2023/06/24 05:47:55;;;;;;;11.02;7.55;;;;;;;;;;5047061;28;25427;-72
2023/06/24 05:50:21;;;;;;;9.90;6.35;;;;;;;;;;5043134;28;25111;-73
2023/06/24 05:52:47;;;;;;;11.73;7.72;;;;;;;;;;5049593;28;25107;-72
2023/06/24 05:55:16;;;;;;;12.18;7.13;;;;;;;;;;5056195;28;25096;-72
2023/06/24 05:57:42;;;;;;;13.73;7.85;;;;;;;;;;5052633;28;25072;-74
2023/06/24 06:00:09;;;;;;;14.95;8.63;;;;;;;;;;5052991;28;25066;-74
2023/06/24 06:02:34;;;;;;;12.52;8.18;;;;;;;;;;5047271;28;25090;-72
2023/06/24 06:05:01;;;;;;;12.55;6.97;;;;;;;;;;5054977;28;25083;-73
2023/06/24 06:07:27;;;;;;;11.65;7.68;;;;;;;;;;5049603;28;25052;-73
2023/06/24 06:09:53;;;;;;;14.82;8.32;;;;;;;;;;5040791;28;25099;-73
2023/06/24 06:12:19;;;;;;;11.45;7.55;;;;;;;;;;5046957;28;25093;-74
2023/06/24 06:14:45;;;;;;;10.75;7.57;;;;;;;;;;5047226;28;25059;-72
2023/06/24 06:17:12;;;;;;;13.13;8.57;;;;;;;;;;5042251;28;25067;-72
2023/06/24 06:19:39;;;;;;;13.50;7.90;;;;;;;;;;5047547;28;25079;-73
2023/06/24 06:22:06;;;;;;;12.85;7.88;;;;;;;;;;5050279;28;25081;-75
2023/06/24 06:24:32;;;;;;;14.35;8.43;;;;;;;;;;5055991;28;25078;-73
2023/06/24 06:26:59;;;;;;;10.13;7.72;;;;;;;;;;5051506;28;25084;-73
2023/06/24 06:29:25;;;;;;;11.50;7.00;;;;;;;;;;5048514;28;25061;-75
2023/06/24 06:31:52;;;;;;;14.85;8.68;;;;;;;;;;5052115;28;25112;-74
2023/06/24 06:34:18;;;;;;;12.48;7.78;;;;;;;;;;5063103;28;25076;-75
2023/06/24 06:36:44;;;;;;;10.40;7.65;;;;;;;;;;5037569;28;25066;-74
2023/06/24 06:39:10;;;;;;;13.77;7.82;;;;;;;;;;5040998;28;25092;-74
2023/06/24 06:41:36;;;;;;;11.75;7.97;;;;;;;;;;5043571;28;25061;-75
2023/06/24 06:44:02;;;;;;;10.80;7.90;;;;;;;;;;5041420;28;25169;-75
2023/06/24 06:46:28;;;;;;;12.15;7.40;;;;;;;;;;5051041;28;25066;-73
2023/06/24 06:48:54;;;;;;;11.27;7.65;;;;;;;;;;5047453;28;25062;-73
2023/06/24 06:51:20;;;;;;;11.25;7.53;;;;;;;;;;5044046;28;25083;-73
2023/06/24 06:53:46;;;;;;;11.90;7.13;;;;;;;;;;5045892;28;25073;-74
2023/06/24 06:56:19;;;;;;;12.15;8.45;;;;;;;;;;5043801;28;25054;-73
2023/06/24 06:58:45;;;;;;;11.23;8.07;;;;;;;;;;5038791;28;25139;-73
2023/06/24 07:01:11;;;;;;;15.02;7.93;;;;;;;;;;5045637;28;25085;-75
2023/06/24 07:03:36;;;;;;;14.88;7.68;;;;;;;;;;5045818;28;25062;-72
2023/06/24 07:06:02;;;;;;;11.93;8.15;;;;;;;;;;5033667;28;25093;-75
2023/06/24 07:08:28;;;;;;;15.60;8.25;;;;;;;;;;5047611;28;25064;-74
2023/06/24 07:10:54;;;;;;;14.27;8.45;;;;;;;;;;5041503;28;25116;-73
2023/06/24 07:13:20;;;;;;;16.17;8.63;;;;;;;;;;5046134;28;25053;-74
2023/06/24 07:15:46;;;;;;;14.73;9.52;;;;;;;;;;5047776;28;25043;-74
2023/06/24 07:18:12;;;;;;;13.90;8.68;;;;;;;;;;5043502;28;25079;-75
2023/06/24 07:20:38;;;;;;;12.50;8.02;;;;;;;;;;5043732;28;25065;-76
2023/06/24 07:23:04;;;;;;;14.40;7.68;;;;;;;;;;5042281;28;25066;-73
2023/06/24 07:25:30;;;;;;;12.77;9.15;;;;;;;;;;5048049;28;25061;-74
2023/06/24 07:27:56;;;;;;;11.23;7.25;;;;;;;;;;5047500;28;25154;-74
2023/06/24 07:30:22;;;;;;;15.48;8.13;;;;;;;;;;5052580;28;25113;-74
2023/06/24 07:32:49;;;;;;;14.82;8.10;;;;;;;;;;5045380;28;25064;-75
2023/06/24 07:35:16;;;;;;;15.52;8.35;;;;;;;;;;5046499;28;25143;-75
2023/06/24 07:37:42;;;;;;;13.50;8.23;;;;;;;;;;5044728;28;25056;-75
2023/06/24 07:40:08;;;;;;;12.10;8.50;;;;;;;;;;5057365;28;25111;-74
2023/06/24 07:42:34;;;;;;;13.05;8.45;;;;;;;;;;5045541;28;25062;-73
2023/06/24 07:45:00;;;;;;;11.27;8.07;;;;;;;;;;5046181;28;25064;-75
2023/06/24 07:47:27;;;;;;;16.50;8.50;;;;;;;;;;5048998;28;25086;-75
2023/06/24 07:49:52;;;;;;;17.95;8.65;;;;;;;;;;5049254;28;25052;-73
2023/06/24 07:52:18;;;;;;;20.20;9.70;;;;;;;;;;5048357;28;25132;-74
2023/06/24 07:54:44;;;;;;;16.20;8.80;;;;;;;;;;5025991;28;25142;-74
2023/06/24 07:57:10;;;;;;;14.43;9.32;;;;;;;;;;5039309;28;25134;-75
2023/06/24 07:59:36;;;;;;;13.05;8.25;;;;;;;;;;5031526;28;25069;-73
2023/06/24 08:02:02;;;;;;;17.88;8.98;;;;;;;;;;5040735;28;25069;-74
2023/06/24 08:04:28;;;;;;;14.55;9.25;;;;;;;;;;5046805;28;25050;-73
2023/06/24 08:06:54;;;;;;;13.32;8.63;;;;;;;;;;5039732;28;25060;-75
2023/06/24 08:09:20;;;;;;;13.68;8.80;;;;;;;;;;5058359;28;25089;-75
2023/06/24 08:11:46;;;;;;;18.30;8.65;;;;;;;;;;5052991;28;25088;-75
2023/06/24 08:14:12;;;;;;;13.48;9.43;;;;;;;;;;5045528;28;25148;-74
2023/06/24 08:16:38;;;;;;;14.27;9.65;;;;;;;;;;5046477;28;25173;-72
2023/06/24 08:19:04;;;;;;;14.95;8.52;;;;;;;;;;5035371;28;25102;-73
2023/06/24 08:21:30;;;;;;;12.52;8.52;;;;;;;;;;5054521;28;25108;-74
2023/06/24 08:23:56;;;;;;;11.90;7.72;;;;;;;;;;5050618;28;25093;-75
2023/06/24 08:26:22;;;;;;;10.88;6.75;;;;;;;;;;5048305;28;25072;-75
2023/06/24 08:28:49;;;;;;;14.02;8.15;;;;;;;;;;5045199;28;25053;-75
2023/06/24 08:31:15;;;;;;;12.43;8.27;;;;;;;;;;5046334;28;25085;-74
2023/06/24 08:33:47;;;;;;;13.75;7.72;;;;;;;;;;5041116;28;25068;-74
2023/06/24 08:36:13;;;;;;;11.88;7.85;;;;;;;;;;5040113;28;25171;-74
2023/06/24 08:38:39;;;;;;;17.13;8.68;;;;;;;;;;5043208;28;25065;-74
2023/06/24 08:41:05;;;;;;;15.43;10.63;;;;;;;;;;5038540;28;25166;-74
2023/06/24 08:43:31;;;;;;;15.63;10.02;;;;;;;;;;5038251;28;25063;-73
2023/06/24 08:45:57;;;;;;;14.63;9.77;;;;;;;;;;5039977;28;25048;-75
2023/06/24 08:48:23;;;;;;;15.88;10.02;;;;;;;;;;5044095;28;25102;-72
2023/06/24 08:50:51;;;;;;;18.98;10.73;;;;;;;;;;5040852;28;25157;-75
2023/06/24 08:53:19;;;;;;;17.52;10.98;;;;;;;;;;5033217;28;25106;-75
2023/06/24 08:55:45;;;;;;;13.82;9.95;;;;;;;;;;5035315;28;25071;-75
2023/06/24 08:58:12;;;;;;;15.75;10.35;;;;;;;;;;5022824;28;25053;-73
2023/06/24 09:00:38;;;;;;;19.20;11.70;;;;;;;;;;5036159;28;25069;-75
2023/06/24 09:03:04;;;;;;;15.25;11.23;;;;;;;;;;5039842;28;25053;-74
2023/06/24 09:05:30;;;;;;;19.35;11.93;;;;;;;;;;5043499;28;25106;-75
2023/06/24 09:07:56;;;;;;;16.67;10.70;;;;;;;;;;5045563;28;25105;-73
2023/06/24 09:10:31;;;;;;;17.80;10.15;;;;;;;;;;5044173;28;25054;-74
2023/06/24 09:12:57;;;;;;;18.35;11.45;;;;;;;;;;5047552;28;25165;-73
2023/06/24 09:15:23;;;;;;;19.65;11.27;;;;;;;;;;5041862;28;25075;-73
2023/06/24 09:17:50;;;;;;;18.08;11.10;;;;;;;;;;5038086;28;25074;-75
2023/06/24 09:20:20;;;;;;;21.73;13.32;;;;;;;;;;5038562;28;25173;-75
2023/06/24 09:22:46;;;;;;;17.17;12.30;;;;;;;;;;5040064;28;25110;-75
2023/06/24 09:25:17;;;;;;;14.35;10.90;;;;;;;;;;5046672;28;25112;-72
2023/06/24 09:27:48;;;;;;;21.50;13.52;;;;;;;;;;5023998;28;25070;-76
2023/06/24 09:30:19;;;;;;;17.90;11.77;;;;;;;;;;5026861;28;25053;-75
2023/06/24 09:32:45;;;;;;;19.23;12.05;;;;;;;;;;5027598;28;25070;-75
2023/06/24 09:35:11;;;;;;;14.77;10.65;;;;;;;;;;5049855;28;25050;-73
2023/06/24 09:37:37;;;;;;;21.63;12.52;;;;;;;;;;5044136;28;25083;-72
2023/06/24 09:40:05;;;;;;;17.05;11.93;;;;;;;;;;5056915;28;25084;-73
2023/06/24 09:42:31;;;;;;;17.58;12.05;;;;;;;;;;5045060;28;25098;-74
2023/06/24 09:44:58;;;;;;;19.77;12.95;;;;;;;;;;5023756;28;25082;-75
2023/06/24 09:47:24;;;;;;;19.95;12.82;;;;;;;;;;5054071;28;25061;-75
2023/06/24 09:49:51;;;;;;;18.67;12.10;;;;;;;;;;5042372;28;25079;-78
2023/06/24 09:52:18;;;;;;;15.18;11.88;;;;;;;;;;5044513;28;25054;-76
2023/06/24 09:54:46;;;;;;;18.90;12.73;;;;;;;;;;5040934;28;25052;-75
2023/06/24 09:57:13;;;;;;;21.20;12.75;;;;;;;;;;5048943;28;25078;-75
2023/06/24 09:59:40;;;;;;;20.85;14.07;;;;;;;;;;5031235;28;25067;-77
2023/06/24 10:02:12;;;;;;;18.33;13.00;;;;;;;;;;5031573;28;25061;-78
2023/06/24 10:04:38;;;;;;;20.65;12.20;;;;;;;;;;5032720;28;25076;-77
2023/06/24 10:07:04;;;;;;;20.40;12.95;;;;;;;;;;5038799;28;25070;-76
2023/06/24 10:09:30;;;;;;;20.35;12.32;;;;;;;;;;5047274;28;25084;-74
2023/06/24 10:11:56;;;;;;;22.23;13.95;;;;;;;;;;5053285;28;25092;-73
2023/06/24 10:14:22;;;;;;;15.02;10.63;;;;;;;;;;5044289;28;25057;-74
2023/06/24 10:16:49;;;;;;;20.60;12.50;;;;;;;;;;5051695;28;25086;-73
2023/06/24 10:19:21;;;;;;;17.50;11.35;;;;;;;;;;5042637;28;25074;-74
2023/06/24 10:21:54;;;;;;;20.08;12.75;;;;;;;;;;5058498;28;25048;-75
2023/06/24 10:24:29;;;;;;;19.15;12.35;;;;;;;;;;5067134;28;25136;-72
2023/06/24 10:26:56;;;;;;;18.25;9.82;;;;;;;;;;5074468;28;25078;-74
2023/06/24 10:29:38;;;;;;;17.80;10.98;;;;;;;;;;5068898;28;25080;-76
2023/06/24 10:32:08;;;;;;;12.82;9.73;;;;;;;;;;5046795;28;25143;-74
2023/06/24 10:34:47;;;;;;;12.70;8.70;;;;;;;;;;5070150;28;25091;-75
2023/06/24 10:37:20;;;;;;;11.98;8.13;;;;;;;;;;5055292;28;25093;-75
2023/06/24 10:39:49;;;;;;;13.55;10.32;;;;;;;;;;5062859;28;25057;-74
2023/06/24 10:42:33;;;;;;;12.60;9.45;;;;;;;;;;5067350;28;25059;-75
2023/06/24 10:45:13;;;;;;;18.85;11.00;;;;;;;;;;5065393;28;25068;-73
2023/06/24 10:47:41;;;;;;;19.77;13.48;;;;;;;;;;5064183;28;25081;-74
2023/06/24 10:50:08;;;;;;;16.73;10.95;;;;;;;;;;5083048;28;25065;-73
2023/06/24 10:52:38;;;;;;;18.80;12.30;;;;;;;;;;5047771;28;25071;-75
2023/06/24 10:55:04;;;;;;;18.40;12.40;;;;;;;;;;5028450;28;25064;-74
2023/06/24 10:57:30;;;;;;;15.38;11.43;;;;;;;;;;5034180;28;25166;-74
2023/06/24 10:59:57;;;;;;;17.98;12.38;;;;;;;;;;5027637;28;25074;-74
2023/06/24 11:02:24;;;;;;;17.70;11.73;;;;;;;;;;5023209;28;24854;-75
2023/06/24 11:04:51;;;;;;;15.93;11.00;;;;;;;;;;5037562;28;25071;-73
2023/06/24 11:07:18;;;;;;;12.85;9.45;;;;;;;;;;5025036;28;25073;-72
2023/06/24 11:09:49;;;;;;;12.68;9.35;;;;;;;;;;5025044;28;25158;-74
2023/06/24 11:12:15;;;;;;;12.43;8.23;;;;;;;;;;5045720;28;25071;-73
2023/06/24 11:14:41;;;;;;;15.40;10.23;;;;;;;;;;5049394;28;25128;-73
2023/06/24 11:17:07;;;;;;;12.70;8.48;;;;;;;;;;5036794;28;25048;-73
2023/06/24 11:19:34;;;;;;;13.13;7.57;;;;;;;;;;5043500;28;25072;-73
2023/06/24 11:22:03;;;;;;;14.38;9.15;;;;;;;;;;5035418;28;25105;-73
2023/06/24 11:24:29;;;;;;;11.80;7.63;;;;;;;;;;5042779;28;25098;-73
2023/06/24 11:26:55;;;;;;;13.73;7.82;;;;;;;;;;5070885;28;25056;-72
2023/06/24 11:29:22;;;;;;;9.23;7.05;;;;;;;;;;5073498;28;25054;-74
2023/06/24 11:31:48;;;;;;;9.23;6.65;;;;;;;;;;5067576;28;25075;-72
2023/06/24 11:34:14;;;;;;;11.27;7.20;;;;;;;;;;5068519;28;25083;-72
2023/06/24 11:36:40;;;;;;;8.65;6.18;;;;;;;;;;5058936;28;25060;-76
2023/06/24 11:39:06;;;;;;;7.65;6.47;;;;;;;;;;5070860;28;25084;-74
2023/06/24 11:41:33;;;;;;;8.55;6.70;;;;;;;;;;5043354;28;25075;-73
2023/06/24 11:43:59;;;;;;;11.05;5.88;;;;;;;;;;5044970;28;25087;-75
2023/06/24 11:46:33;;;;;;;10.73;6.63;;;;;;;;;;5033466;28;25161;-72
2023/06/24 11:49:05;;;;;;;7.18;6.03;;;;;;;;;;5053632;28;25115;-73
2023/06/24 11:51:31;;;;;;;6.85;5.78;;;;;;;;;;5048064;28;25119;-74
2023/06/24 11:54:01;;;;;;;10.65;6.57;;;;;;;;;;5049739;28;25170;-72
2023/06/24 11:56:40;;;;;;;9.15;6.22;;;;;;;;;;5046154;28;25053;-72
2023/06/24 11:59:06;;;;;;;11.10;5.32;;;;;;;;;;5044533;28;24806;-73
2023/06/24 12:01:33;;;;;;;6.03;4.63;;;;;;;;;;5050221;28;25076;-72
2023/06/24 12:04:02;;;;;;;3.97;3.30;;;;;;;;;;5029746;28;25134;-71
2023/06/24 12:06:28;;;;;;;6.07;3.25;;;;;;;;;;5032247;28;25125;-72
2023/06/24 12:08:54;;;;;;;6.60;4.70;;;;;;;;;;5030694;28;25096;-75
2023/06/24 12:11:20;;;;;;;5.57;3.03;;;;;;;;;;5011509;28;25087;-73
2023/06/24 12:13:46;;;;;;;5.28;4.63;;;;;;;;;;5016121;28;25055;-76
2023/06/24 12:16:12;;;;;;;6.65;3.97;;;;;;;;;;5022247;28;25064;-74
2023/06/24 12:18:38;;;;;;;6.40;3.90;;;;;;;;;;5020785;28;25051;-72
2023/06/24 12:21:04;;;;;;;4.53;2.80;;;;;;;;;;5025293;28;25095;-73
2023/06/24 12:23:30;;;;;;;3.92;3.10;;;;;;;;;;5019324;28;25149;-74
2023/06/24 12:25:56;;;;;;;6.38;3.45;;;;;;;;;;5030274;28;25105;-71
2023/06/24 12:28:22;;;;;;;3.47;3.13;;;;;;;;;;5038495;28;25074;-74
2023/06/24 12:30:48;;;;;;;7.90;4.13;;;;;;;;;;5033201;28;25197;-73
2023/06/24 12:33:14;;;;;;;6.75;4.32;;;;;;;;;;5026045;28;25069;-73
2023/06/24 12:35:40;;;;;;;6.00;4.70;;;;;;;;;;5025188;28;25062;-73
2023/06/24 12:38:06;;;;;;;8.75;5.18;;;;;;;;;;5029967;28;25054;-72
2023/06/24 12:40:32;;;;;;;6.88;4.82;;;;;;;;;;5024089;28;25066;-75
2023/06/24 12:42:59;;;;;;;6.97;4.95;;;;;;;;;;5023571;28;25057;-72
2023/06/24 12:45:26;;;;;;;10.30;6.50;;;;;;;;;;5019306;28;25043;-72
2023/06/24 12:47:52;;;;;;;12.15;8.30;;;;;;;;;;5021980;28;25053;-71
2023/06/24 12:50:18;;;;;;;13.25;7.22;;;;;;;;;;5021896;28;25078;-73
2023/06/24 12:52:44;;;;;;;12.35;8.13;;;;;;;;;;5022151;28;25095;-73
2023/06/24 12:55:10;;;;;;;11.70;6.78;;;;;;;;;;5020442;28;25096;-72
2023/06/24 12:57:36;;;;;;;11.95;7.50;;;;;;;;;;5033407;28;25081;-71
2023/06/24 13:00:05;;;;;;;11.10;8.02;;;;;;;;;;5022446;28;25092;-73
2023/06/24 13:02:31;;;;;;;11.57;8.20;;;;;;;;;;5019112;28;25092;-74
2023/06/24 13:04:56;;;;;;;10.73;7.43;;;;;;;;;;5022204;28;25119;-71
2023/06/24 13:07:23;;;;;;;11.52;6.90;;;;;;;;;;5022269;28;25097;-74
2023/06/24 13:09:49;;;;;;;11.38;7.50;;;;;;;;;;5016501;28;25078;-71
2023/06/24 13:12:14;;;;;;;9.52;6.85;;;;;;;;;;5019302;28;25057;-73
2023/06/24 13:14:40;;;;;;;14.27;7.82;;;;;;;;;;5024592;28;25067;-71
2023/06/24 13:17:07;;;;;;;14.13;7.07;;;;;;;;;;5022678;28;25224;-70
2023/06/24 13:19:33;;;;;;;9.93;7.20;;;;;;;;;;5032098;28;25062;-71
2023/06/24 13:21:59;;;;;;;9.48;7.13;;;;;;;;;;5031377;28;25058;-72
2023/06/24 13:24:25;;;;;;;11.10;6.90;;;;;;;;;;5022979;28;25123;-69
2023/06/24 13:26:51;;;;;;;10.30;7.30;;;;;;;;;;5023664;28;25070;-70
2023/06/24 13:29:19;;;;;;;8.02;5.85;;;;;;;;;;5030754;28;25061;-70
2023/06/24 13:31:45;;;;;;;9.40;7.03;;;;;;;;;;5043342;28;25066;-71
2023/06/24 13:34:11;;;;;;;8.32;6.78;;;;;;;;;;5027994;28;25066;-70
2023/06/24 13:36:38;;;;;;;12.13;6.40;;;;;;;;;;5037761;28;25057;-70
2023/06/24 13:39:05;;;;;;;17.02;7.35;;;;;;;;;;5025657;28;25046;-70
2023/06/24 13:41:32;;;;;;;11.07;6.30;;;;;;;;;;5022331;28;25050;-70
2023/06/24 13:43:59;;;;;;;11.20;6.95;;;;;;;;;;5017177;28;25064;-72
2023/06/24 13:46:25;;;;;;;8.68;6.75;;;;;;;;;;5024527;28;25076;-70
2023/06/24 13:48:51;;;;;;;9.48;6.65;;;;;;;;;;5021507;28;25134;-73
2023/06/24 13:51:18;;;;;;;9.85;6.38;;;;;;;;;;5016945;28;25091;-72
2023/06/24 13:53:44;;;;;;;11.93;7.47;;;;;;;;;;5019472;28;25125;-70
2023/06/24 13:56:10;;;;;;;13.75;7.40;;;;;;;;;;5026845;28;25050;-70
2023/06/24 13:58:36;;;;;;;11.30;8.02;;;;;;;;;;5017158;28;25125;-69
2023/06/24 14:01:02;;;;;;;10.13;7.45;;;;;;;;;;5023419;28;25066;-70
2023/06/24 14:03:28;;;;;;;11.45;6.38;;;;;;;;;;5020984;28;25070;-71
2023/06/24 14:05:56;;;;;;;13.85;8.23;;;;;;;;;;5021901;28;25057;-70
2023/06/24 14:08:22;;;;;;;9.98;7.63;;;;;;;;;;5021368;28;25084;-71
2023/06/24 14:10:48;;;;;;;12.20;7.25;;;;;;;;;;5020510;28;25072;-71
2023/06/24 14:13:14;;;;;;;15.00;7.55;;;;;;;;;;5027481;28;25145;-71
2023/06/24 14:15:41;;;;;;;13.57;6.82;;;;;;;;;;5020371;28;25078;-72
2023/06/24 14:18:07;;;;;;;17.52;7.55;;;;;;;;;;5025942;28;25057;-71
2023/06/24 14:20:33;;;;;;;12.75;6.97;;;;;;;;;;5025014;28;25149;-72
2023/06/24 14:22:59;;;;;;;12.63;6.90;;;;;;;;;;5021461;28;25066;-71
2023/06/24 14:25:25;;;;;;;10.27;6.35;;;;;;;;;;5010416;28;25064;-72
2023/06/24 14:27:51;;;;;;;7.25;5.88;;;;;;;;;;5040498;28;25144;-70
2023/06/24 14:30:17;;;;;;;11.70;8.13;;;;;;;;;;5019368;28;25081;-73
2023/06/24 14:32:43;;;;;;;10.95;7.22;;;;;;;;;;5019575;28;25062;-71